Delhi, Michigan
Current Conditions -  °F | °C
As of 5:53 AM on Sunday 21 Dec 2014 (Local Time) from KARB Reporting Station
Haze Haze  
Wind Chill: 26°   Ceiling: 3400
Heat Index: 26°   Visibility: 6mi
Dew Point: 24°   Wind: 0mph
Humidity: 92%   Direction: NA
Pressure: 30.29"   Gusts: NA
Location:  42.2601°N, 83.8448°W
Report Text: KARB 211053Z AUTO 00000KT 6SM BR BKN034 OVC060 M03/M04 A3029 RMK AO2 SLP268 T10331044
Loading
Personal Weather Stations






























Interactive Weather Map New forecast layout! Learn more

10-Day Weather Forecast

Advertisements
Track Severe Weather on mobile